sensor_id;sensor_type;location;lat;lon;timestamp;pressure;altitude;pressure_sealevel;temperature;humidity
10510;BME280;5303;53.266;10.410;2023-06-22T00:00:49;101686.31;;;17.84;78.31
10510;BME280;5303;53.266;10.410;2023-06-22T00:03:15;101687.25;;;17.82;78.43
10510;BME280;5303;53.266;10.410;2023-06-22T00:05:40;101689.06;;;17.80;78.90
10510;BME280;5303;53.266;10.410;2023-06-22T00:08:05;101687.31;;;17.77;78.69
10510;BME280;5303;53.266;10.410;2023-06-22T00:10:31;101697.16;;;17.75;79.30
10510;BME280;5303;53.266;10.410;2023-06-22T00:12:56;101695.41;;;17.74;80.17
10510;BME280;5303;53.266;10.410;2023-06-22T00:15:22;101699.03;;;17.70;80.56
10510;BME280;5303;53.266;10.410;2023-06-22T00:17:47;101697.28;;;17.68;80.57
10510;BME280;5303;53.266;10.410;2023-06-22T00:20:12;101698.22;;;17.64;80.51
10510;BME280;5303;53.266;10.410;2023-06-22T00:22:39;101697.41;;;17.60;80.89
10510;BME280;5303;53.266;10.410;2023-06-22T00:25:06;101706.38;;;17.56;81.21
10510;BME280;5303;53.266;10.410;2023-06-22T00:27:32;101701.94;;;17.55;81.51
10510;BME280;5303;53.266;10.410;2023-06-22T00:29:57;101697.50;;;17.54;81.67
10510;BME280;5303;53.266;10.410;2023-06-22T00:32:22;101699.28;;;17.55;82.09
10510;BME280;5303;53.266;10.410;2023-06-22T00:34:48;101697.47;;;17.55;82.31
10510;BME280;5303;53.266;10.410;2023-06-22T00:37:13;101697.50;;;17.54;82.66
10510;BME280;5303;53.266;10.410;2023-06-22T00:39:38;101695.75;;;17.53;82.58
10510;BME280;5303;53.266;10.410;2023-06-22T00:42:04;101692.25;;;17.51;82.81
10510;BME280;5303;53.266;10.410;2023-06-22T00:44:29;101702.91;;;17.51;82.99
10510;BME280;5303;53.266;10.410;2023-06-22T00:46:55;101709.13;;;17.51;83.00
10510;BME280;5303;53.266;10.410;2023-06-22T00:49:20;101703.78;;;17.51;83.03
10510;BME280;5303;53.266;10.410;2023-06-22T00:51:46;101702.91;;;17.51;82.46
10510;BME280;5303;53.266;10.410;2023-06-22T00:54:13;101703.84;;;17.48;81.52
10510;BME280;5303;53.266;10.410;2023-06-22T00:56:40;101702.91;;;17.51;81.96
10510;BME280;5303;53.266;10.410;2023-06-22T00:59:06;101705.53;;;17.54;82.37
10510;BME280;5303;53.266;10.410;2023-06-22T01:01:31;101711.81;;;17.50;82.21
10510;BME280;5303;53.266;10.410;2023-06-22T01:03:57;101706.59;;;17.44;82.49
10510;BME280;5303;53.266;10.410;2023-06-22T01:06:29;101706.72;;;17.38;82.39
10510;BME280;5303;53.266;10.410;2023-06-22T01:09:32;101706.78;;;17.32;82.54
10510;BME280;5303;53.266;10.410;2023-06-22T01:12:01;101704.19;;;17.28;82.90
10510;BME280;5303;53.266;10.410;2023-06-22T01:15:11;101696.28;;;17.22;82.94
10510;BME280;5303;53.266;10.410;2023-06-22T01:17:41;101691.84;;;17.21;82.94
10510;BME280;5303;53.266;10.410;2023-06-22T01:20:09;101691.84;;;17.21;82.92
10510;BME280;5303;53.266;10.410;2023-06-22T01:22:57;101691.84;;;17.21;83.02
10510;BME280;5303;53.266;10.410;2023-06-22T01:25:33;101689.25;;;17.18;83.22
10510;BME280;5303;53.266;10.410;2023-06-22T01:29:01;101688.38;;;17.18;82.91
10510;BME280;5303;53.266;10.410;2023-06-22T01:30:57;101689.31;;;17.14;83.09
10510;BME280;5303;53.266;10.410;2023-06-22T01:33:33;101693.81;;;17.10;83.06
10510;BME280;5303;53.266;10.410;2023-06-22T01:36:01;101695.66;;;17.05;83.06
10510;BME280;5303;53.266;10.410;2023-06-22T01:38:27;101694.00;;;16.98;83.04
10510;BME280;5303;53.266;10.410;2023-06-22T01:40:54;101694.94;;;16.94;83.15
10510;BME280;5303;53.266;10.410;2023-06-22T01:43:21;101703.91;;;16.90;83.13
10510;BME280;5303;53.266;10.410;2023-06-22T01:45:48;101703.09;;;16.86;83.20
10510;BME280;5303;53.266;10.410;2023-06-22T01:48:14;101695.03;;;16.89;83.79
10510;BME280;5303;53.266;10.410;2023-06-22T01:50:40;101689.66;;;16.91;84.34
10510;BME280;5303;53.266;10.410;2023-06-22T01:53:05;101699.47;;;16.90;84.59
10510;BME280;5303;53.266;10.410;2023-06-22T01:55:32;101693.31;;;16.87;84.45
10510;BME280;5303;53.266;10.410;2023-06-22T01:57:57;101695.09;;;16.85;84.59
10510;BME280;5303;53.266;10.410;2023-06-22T02:00:25;101687.97;;;16.85;84.71
10510;BME280;5303;53.266;10.410;2023-06-22T02:03:11;101680.91;;;16.83;84.76
10510;BME280;5303;53.266;10.410;2023-06-22T02:05:54;101687.16;;;16.82;84.40
10510;BME280;5303;53.266;10.410;2023-06-22T02:08:28;101695.19;;;16.79;84.53
10510;BME280;5303;53.266;10.410;2023-06-22T02:10:56;101693.38;;;16.81;84.63
10510;BME280;5303;53.266;10.410;2023-06-22T02:13:24;101690.72;;;16.81;84.65
10510;BME280;5303;53.266;10.410;2023-06-22T02:15:50;101676.47;;;16.82;84.66
10510;BME280;5303;53.266;10.410;2023-06-22T02:18:16;101684.56;;;16.77;84.54
10510;BME280;5303;53.266;10.410;2023-06-22T02:20:41;101677.53;;;16.72;83.71
10510;BME280;5303;53.266;10.410;2023-06-22T02:23:07;101684.69;;;16.66;83.23
10510;BME280;5303;53.266;10.410;2023-06-22T02:25:33;101681.13;;;16.64;83.46
10510;BME280;5303;53.266;10.410;2023-06-22T02:27:59;101675.84;;;16.61;83.45
10510;BME280;5303;53.266;10.410;2023-06-22T02:30:24;101690.09;;;16.60;83.75
10510;BME280;5303;53.266;10.410;2023-06-22T02:32:49;101681.25;;;16.57;83.57
10510;BME280;5303;53.266;10.410;2023-06-22T02:35:23;101681.28;;;16.55;84.11
10510;BME280;5303;53.266;10.410;2023-06-22T02:37:48;101682.19;;;16.56;84.17
10510;BME280;5303;53.266;10.410;2023-06-22T02:40:16;101675.97;;;16.55;84.41
10510;BME280;5303;53.266;10.410;2023-06-22T02:42:42;101681.25;;;16.57;84.88
10510;BME280;5303;53.266;10.410;2023-06-22T02:45:07;101681.22;;;16.60;85.44
10510;BME280;5303;53.266;10.410;2023-06-22T02:47:33;101675.84;;;16.61;85.99
10510;BME280;5303;53.266;10.410;2023-06-22T02:49:58;101676.72;;;16.63;86.62
10510;BME280;5303;53.266;10.410;2023-06-22T02:52:23;101674.09;;;16.60;86.69
10510;BME280;5303;53.266;10.410;2023-06-22T02:54:48;101670.63;;;16.55;86.89
10510;BME280;5303;53.266;10.410;2023-06-22T02:57:14;101675.97;;;16.55;87.18
10510;BME280;5303;53.266;10.410;2023-06-22T02:59:40;101673.22;;;16.60;87.69
10510;BME280;5303;53.266;10.410;2023-06-22T03:02:07;101680.34;;;16.59;87.41
10510;BME280;5303;53.266;10.410;2023-06-22T03:04:33;101676.81;;;16.57;87.08
10510;BME280;5303;53.266;10.410;2023-06-22T03:06:59;101680.31;;;16.61;87.07
10510;BME280;5303;53.266;10.410;2023-06-22T03:09:29;101687.41;;;16.60;87.37
10510;BME280;5303;53.266;10.410;2023-06-22T03:11:55;101688.31;;;16.59;87.45
10510;BME280;5303;53.266;10.410;2023-06-22T03:14:20;101699.91;;;16.57;87.02
10510;BME280;5303;53.266;10.410;2023-06-22T03:16:45;101696.38;;;16.53;86.97
10510;BME280;5303;53.266;10.410;2023-06-22T03:19:11;101701.75;;;16.50;87.04
10510;BME280;5303;53.266;10.410;2023-06-22T03:21:37;101699.09;;;16.50;86.97
10510;BME280;5303;53.266;10.410;2023-06-22T03:24:04;101697.28;;;16.52;86.98
10510;BME280;5303;53.266;10.410;2023-06-22T03:26:30;101706.13;;;16.54;87.21
10510;BME280;5303;53.266;10.410;2023-06-22T03:28:55;101707.03;;;16.56;87.10
10510;BME280;5303;53.266;10.410;2023-06-22T03:31:20;101706.97;;;16.59;87.47
10510;BME280;5303;53.266;10.410;2023-06-22T03:33:47;101707.81;;;16.63;87.45
10510;BME280;5303;53.266;10.410;2023-06-22T03:36:13;101704.22;;;16.68;87.75
10510;BME280;5303;53.266;10.410;2023-06-22T03:38:38;101711.25;;;16.76;88.07
10510;BME280;5303;53.266;10.410;2023-06-22T03:41:04;101708.47;;;16.82;88.29
10510;BME280;5303;53.266;10.410;2023-06-22T03:43:29;101710.19;;;16.86;88.69
10510;BME280;5303;53.266;10.410;2023-06-22T03:45:54;101721.66;;;16.91;88.96
10510;BME280;5303;53.266;10.410;2023-06-22T03:48:19;101714.44;;;16.99;89.01
10510;BME280;5303;53.266;10.410;2023-06-22T03:50:45;101724.09;;;17.05;89.32
10510;BME280;5303;53.266;10.410;2023-06-22T03:53:10;101725.81;;;17.10;88.52
10510;BME280;5303;53.266;10.410;2023-06-22T03:55:36;101723.03;;;17.16;87.61
10510;BME280;5303;53.266;10.410;2023-06-22T03:58:01;101725.72;;;17.15;86.64
10510;BME280;5303;53.266;10.410;2023-06-22T04:00:30;101736.28;;;17.22;86.46
10510;BME280;5303;53.266;10.410;2023-06-22T04:02:55;101730.91;;;17.24;86.09
10510;BME280;5303;53.266;10.410;2023-06-22T04:05:21;101726.28;;;17.35;84.65
10510;BME280;5303;53.266;10.410;2023-06-22T04:07:46;101729.84;;;17.36;84.00
10510;BME280;5303;53.266;10.410;2023-06-22T04:10:11;101736.97;;;17.34;83.92
10510;BME280;5303;53.266;10.410;2023-06-22T04:12:36;101736.06;;;17.35;84.04
10510;BME280;5303;53.266;10.410;2023-06-22T04:15:02;101739.53;;;17.41;84.60
10510;BME280;5303;53.266;10.410;2023-06-22T04:17:27;101745.59;;;17.51;84.70
10510;BME280;5303;53.266;10.410;2023-06-22T04:19:52;101745.47;;;17.59;84.71
10510;BME280;5303;53.266;10.410;2023-06-22T04:22:18;101741.00;;;17.61;84.83
10510;BME280;5303;53.266;10.410;2023-06-22T04:24:44;101743.63;;;17.62;85.06
10510;BME280;5303;53.266;10.410;2023-06-22T04:27:09;101741.75;;;17.67;85.31
10510;BME280;5303;53.266;10.410;2023-06-22T04:29:34;101740.00;;;17.69;85.59
10510;BME280;5303;53.266;10.410;2023-06-22T04:31:59;101734.50;;;17.78;85.62
10510;BME280;5303;53.266;10.410;2023-06-22T04:34:28;101743.22;;;17.88;85.35
10510;BME280;5303;53.266;10.410;2023-06-22T04:36:54;101741.22;;;17.98;85.06
10510;BME280;5303;53.266;10.410;2023-06-22T04:39:20;101747.16;;;18.13;85.02
10510;BME280;5303;53.266;10.410;2023-06-22T04:41:45;101741.50;;;18.30;84.32
10510;BME280;5303;53.266;10.410;2023-06-22T04:44:15;101734.19;;;18.40;83.03
10510;BME280;5303;53.266;10.410;2023-06-22T04:46:50;101741.97;;;18.51;80.41
10510;BME280;5303;53.266;10.410;2023-06-22T04:49:19;101748.03;;;18.57;79.49
10510;BME280;5303;53.266;10.410;2023-06-22T04:51:45;101742.53;;;18.66;79.10
10510;BME280;5303;53.266;10.410;2023-06-22T04:54:10;101743.19;;;18.78;77.91
10510;BME280;5303;53.266;10.410;2023-06-22T04:56:36;101744.00;;;18.80;75.21
10510;BME280;5303;53.266;10.410;2023-06-22T04:59:02;101749.38;;;18.80;73.96
10510;BME280;5303;53.266;10.410;2023-06-22T05:01:28;101753.44;;;18.97;74.25
10510;BME280;5303;53.266;10.410;2023-06-22T05:03:53;101744.34;;;19.05;73.74
10510;BME280;5303;53.266;10.410;2023-06-22T05:06:21;101726.25;;;19.16;73.56
10510;BME280;5303;53.266;10.410;2023-06-22T05:08:47;101736.44;;;19.37;73.17
10510;BME280;5303;53.266;10.410;2023-06-22T05:11:12;101733.09;;;19.65;72.21
10510;BME280;5303;53.266;10.410;2023-06-22T05:13:37;101744.84;;;19.93;70.66
10510;BME280;5303;53.266;10.410;2023-06-22T05:16:02;101743.81;;;20.30;69.42
10510;BME280;5303;53.266;10.410;2023-06-22T05:18:29;101741.63;;;20.74;69.63
10510;BME280;5303;53.266;10.410;2023-06-22T05:20:54;101732.41;;;21.12;65.59
10510;BME280;5303;53.266;10.410;2023-06-22T05:23:20;101730.00;;;21.83;62.34
10510;BME280;5303;53.266;10.410;2023-06-22T05:25:45;101732.38;;;22.42;60.65
10510;BME280;5303;53.266;10.410;2023-06-22T05:28:10;101733.28;;;22.65;59.18
10510;BME280;5303;53.266;10.410;2023-06-22T05:30:37;101728.25;;;22.56;58.04
10510;BME280;5303;53.266;10.410;2023-06-22T05:33:02;101732.94;;;22.74;56.49
10510;BME280;5303;53.266;10.410;2023-06-22T05:35:27;101735.75;;;22.94;55.87
10510;BME280;5303;53.266;10.410;2023-06-22T05:37:52;101733.06;;;22.94;56.51
10510;BME280;5303;53.266;10.410;2023-06-22T05:40:18;101744.03;;;22.90;56.66
10510;BME280;5303;53.266;10.410;2023-06-22T05:42:43;101742.09;;;23.15;56.05
10510;BME280;5303;53.266;10.410;2023-06-22T05:45:09;101740.41;;;23.13;55.14
10510;BME280;5303;53.266;10.410;2023-06-22T05:47:34;101743.38;;;22.60;57.82
10510;BME280;5303;53.266;10.410;2023-06-22T05:49:59;101738.91;;;22.35;57.61
10510;BME280;5303;53.266;10.410;2023-06-22T05:52:25;101739.75;;;21.61;59.05
10510;BME280;5303;53.266;10.410;2023-06-22T05:54:50;101745.13;;;21.61;59.40
10510;BME280;5303;53.266;10.410;2023-06-22T05:57:15;101736.91;;;21.39;60.17
10510;BME280;5303;53.266;10.410;2023-06-22T05:59:41;101734.09;;;21.14;62.31
10510;BME280;5303;53.266;10.410;2023-06-22T06:02:06;101737.78;;;21.12;61.97
10510;BME280;5303;53.266;10.410;2023-06-22T06:04:31;101738.31;;;20.95;61.24
10510;BME280;5303;53.266;10.410;2023-06-22T06:06:56;101733.38;;;20.81;61.85
10510;BME280;5303;53.266;10.410;2023-06-22T06:09:22;101741.63;;;20.74;62.99
10510;BME280;5303;53.266;10.410;2023-06-22T06:11:47;101741.75;;;20.70;63.23
10510;BME280;5303;53.266;10.410;2023-06-22T06:14:12;101746.72;;;20.83;63.16
10510;BME280;5303;53.266;10.410;2023-06-22T06:16:38;101736.75;;;20.58;63.24
10510;BME280;5303;53.266;10.410;2023-06-22T06:19:03;101736.59;;;20.64;63.85
10510;BME280;5303;53.266;10.410;2023-06-22T06:21:28;101740.75;;;20.73;63.78
10510;BME280;5303;53.266;10.410;2023-06-22T06:23:54;101737.34;;;20.68;62.96
10510;BME280;5303;53.266;10.410;2023-06-22T06:26:19;101728.50;;;20.66;63.84
10510;BME280;5303;53.266;10.410;2023-06-22T06:28:52;101733.63;;;20.42;64.51
10510;BME280;5303;53.266;10.410;2023-06-22T06:31:18;101731.91;;;20.40;65.06
10510;BME280;5303;53.266;10.410;2023-06-22T06:33:43;101730.03;;;20.42;65.30
10510;BME280;5303;53.266;10.410;2023-06-22T06:36:08;101720.50;;;20.64;65.05
10510;BME280;5303;53.266;10.410;2023-06-22T06:38:33;101721.16;;;20.71;64.68
10510;BME280;5303;53.266;10.410;2023-06-22T06:40:59;101719.19;;;20.78;63.61
10510;BME280;5303;53.266;10.410;2023-06-22T06:43:24;101718.91;;;20.57;64.60
10510;BME280;5303;53.266;10.410;2023-06-22T06:45:50;101713.44;;;20.60;64.98
10510;BME280;5303;53.266;10.410;2023-06-22T06:48:15;101709.38;;;20.77;64.64
10510;BME280;5303;53.266;10.410;2023-06-22T06:50:40;101715.94;;;20.96;64.30
10510;BME280;5303;53.266;10.410;2023-06-22T06:53:06;101706.75;;;21.03;64.70
10510;BME280;5303;53.266;10.410;2023-06-22T06:55:31;101704.41;;;21.20;63.25
10510;BME280;5303;53.266;10.410;2023-06-22T06:57:58;101706.16;;;21.21;63.15
10510;BME280;5303;53.266;10.410;2023-06-22T07:00:24;101702.53;;;21.22;64.22
10510;BME280;5303;53.266;10.410;2023-06-22T07:02:50;101703.88;;;21.37;63.71
10510;BME280;5303;53.266;10.410;2023-06-22T07:05:15;101706.03;;;21.52;62.05
10510;BME280;5303;53.266;10.410;2023-06-22T07:07:40;101711.88;;;21.39;63.19
10510;BME280;5303;53.266;10.410;2023-06-22T07:10:09;101711.34;;;21.27;63.92
10510;BME280;5303;53.266;10.410;2023-06-22T07:12:35;101718.19;;;21.38;64.95
10510;BME280;5303;53.266;10.410;2023-06-22T07:15:08;101718.94;;;21.68;62.26
10510;BME280;5303;53.266;10.410;2023-06-22T07:17:34;101714.16;;;21.76;61.93
10510;BME280;5303;53.266;10.410;2023-06-22T07:20:00;101706.88;;;21.79;61.85
10510;BME280;5303;53.266;10.410;2023-06-22T07:22:25;101709.25;;;21.89;62.81
10510;BME280;5303;53.266;10.410;2023-06-22T07:24:50;101717.19;;;21.92;62.44
10510;BME280;5303;53.266;10.410;2023-06-22T07:27:16;101711.59;;;21.98;63.21
10510;BME280;5303;53.266;10.410;2023-06-22T07:29:44;101718.50;;;22.05;62.16
10510;BME280;5303;53.266;10.410;2023-06-22T07:32:10;101721.47;;;22.22;59.28
10510;BME280;5303;53.266;10.410;2023-06-22T07:34:35;101712.13;;;22.09;60.07
10510;BME280;5303;53.266;10.410;2023-06-22T07:37:00;101711.31;;;22.07;61.41
10510;BME280;5303;53.266;10.410;2023-06-22T07:39:26;101719.47;;;22.27;59.41
10510;BME280;5303;53.266;10.410;2023-06-22T07:41:52;101709.91;;;22.43;59.83
10510;BME280;5303;53.266;10.410;2023-06-22T07:44:17;101706.69;;;22.57;59.31
10510;BME280;5303;53.266;10.410;2023-06-22T07:46:42;101711.41;;;22.74;57.30
10510;BME280;5303;53.266;10.410;2023-06-22T07:49:08;101711.41;;;22.74;59.11
10510;BME280;5303;53.266;10.410;2023-06-22T07:51:34;101711.91;;;22.85;57.76
10510;BME280;5303;53.266;10.410;2023-06-22T07:53:59;101707.84;;;22.97;56.78
10510;BME280;5303;53.266;10.410;2023-06-22T07:56:25;101700.19;;;22.86;55.95
10510;BME280;5303;53.266;10.410;2023-06-22T07:58:50;101702.06;;;22.84;57.20
10510;BME280;5303;53.266;10.410;2023-06-22T08:01:16;101690.56;;;23.03;55.74
10510;BME280;5303;53.266;10.410;2023-06-22T08:03:42;101690.44;;;23.06;56.11
10510;BME280;5303;53.266;10.410;2023-06-22T08:06:09;101691.81;;;23.16;53.78
10510;BME280;5303;53.266;10.410;2023-06-22T08:08:36;101694.34;;;23.20;52.81
10510;BME280;5303;53.266;10.410;2023-06-22T08:11:01;101687.06;;;23.22;52.78
10510;BME280;5303;53.266;10.410;2023-06-22T08:13:26;101695.81;;;23.27;54.65
10510;BME280;5303;53.266;10.410;2023-06-22T08:15:52;101694.63;;;23.35;54.35
10510;BME280;5303;53.266;10.410;2023-06-22T08:18:17;101698.69;;;23.45;54.87
10510;BME280;5303;53.266;10.410;2023-06-22T08:20:42;101702.66;;;23.56;54.16
10510;BME280;5303;53.266;10.410;2023-06-22T08:23:08;101704.72;;;23.72;54.20
10510;BME280;5303;53.266;10.410;2023-06-22T08:25:33;101697.84;;;23.65;53.28
10510;BME280;5303;53.266;10.410;2023-06-22T08:27:59;101696.41;;;23.56;54.32
10510;BME280;5303;53.266;10.410;2023-06-22T08:30:25;101686.88;;;23.47;54.32
10510;BME280;5303;53.266;10.410;2023-06-22T08:32:50;101688.16;;;23.61;55.03
10510;BME280;5303;53.266;10.410;2023-06-22T08:35:16;101693.41;;;23.64;54.78
10510;BME280;5303;53.266;10.410;2023-06-22T08:37:41;101684.53;;;23.62;54.04
10510;BME280;5303;53.266;10.410;2023-06-22T08:40:08;101688.91;;;23.64;54.99
10510;BME280;5303;53.266;10.410;2023-06-22T08:42:34;101693.00;;;23.73;55.26
10510;BME280;5303;53.266;10.410;2023-06-22T08:45:00;101688.03;;;23.64;54.27
10510;BME280;5303;53.266;10.410;2023-06-22T08:47:27;101684.06;;;23.72;54.35
10510;BME280;5303;53.266;10.410;2023-06-22T08:49:53;101683.34;;;23.88;55.41
10510;BME280;5303;53.266;10.410;2023-06-22T08:52:20;101675.28;;;23.88;54.29
10510;BME280;5303;53.266;10.410;2023-06-22T08:54:46;101688.41;;;23.95;54.01
10510;BME280;5303;53.266;10.410;2023-06-22T08:57:11;101679.63;;;24.10;53.71
10510;BME280;5303;53.266;10.410;2023-06-22T08:59:36;101684.22;;;24.08;52.70
10510;BME280;5303;53.266;10.410;2023-06-22T09:02:02;101679.63;;;23.90;54.07
10510;BME280;5303;53.266;10.410;2023-06-22T09:04:27;101676.91;;;24.10;54.18
10510;BME280;5303;53.266;10.410;2023-06-22T09:06:52;101681.06;;;23.99;52.83
10510;BME280;5303;53.266;10.410;2023-06-22T09:09:18;101688.00;;;24.04;53.51
10510;BME280;5303;53.266;10.410;2023-06-22T09:11:44;101680.06;;;24.01;53.38
10510;BME280;5303;53.266;10.410;2023-06-22T09:14:10;101677.78;;;23.92;53.25
10510;BME280;5303;53.266;10.410;2023-06-22T09:16:36;101668.03;;;24.08;52.90
10510;BME280;5303;53.266;10.410;2023-06-22T09:19:01;101669.06;;;24.06;53.11
10510;BME280;5303;53.266;10.410;2023-06-22T09:21:26;101665.59;;;24.23;53.22
10510;BME280;5303;53.266;10.410;2023-06-22T09:23:52;101658.16;;;24.28;53.30
10510;BME280;5303;53.266;10.410;2023-06-22T09:26:18;101657.56;;;24.21;52.68
10510;BME280;5303;53.266;10.410;2023-06-22T09:28:43;101660.19;;;24.43;52.57
10510;BME280;5303;53.266;10.410;2023-06-22T09:31:08;101650.34;;;24.42;52.57
10510;BME280;5303;53.266;10.410;2023-06-22T09:33:35;101651.84;;;24.66;52.18
10510;BME280;5303;53.266;10.410;2023-06-22T09:36:01;101648.13;;;24.50;50.13
10510;BME280;5303;53.266;10.410;2023-06-22T09:38:26;101638.97;;;24.54;50.49
10510;BME280;5303;53.266;10.410;2023-06-22T09:40:51;101643.47;;;24.73;49.46
10510;BME280;5303;53.266;10.410;2023-06-22T09:43:17;101636.25;;;24.54;51.71
10510;BME280;5303;53.266;10.410;2023-06-22T09:45:42;101631.63;;;24.75;50.41
10510;BME280;5303;53.266;10.410;2023-06-22T09:48:07;101628.16;;;24.73;50.83
10510;BME280;5303;53.266;10.410;2023-06-22T09:50:34;101621.72;;;24.76;49.85
10510;BME280;5303;53.266;10.410;2023-06-22T09:53:00;101617.63;;;24.67;50.13
10510;BME280;5303;53.266;10.410;2023-06-22T09:55:25;101615.72;;;24.69;50.49
10510;BME280;5303;53.266;10.410;2023-06-22T09:57:50;101611.00;;;24.74;48.99
10510;BME280;5303;53.266;10.410;2023-06-22T10:00:16;101606.56;;;24.73;48.78
10510;BME280;5303;53.266;10.410;2023-06-22T10:02:42;101604.03;;;24.87;48.90
10510;BME280;5303;53.266;10.410;2023-06-22T10:05:11;101611.75;;;24.95;48.46
10510;BME280;5303;53.266;10.410;2023-06-22T10:07:36;101604.81;;;24.89;49.32
10510;BME280;5303;53.266;10.410;2023-06-22T10:10:08;101598.38;;;25.11;49.59
10510;BME280;5303;53.266;10.410;2023-06-22T10:12:33;101596.72;;;25.25;48.33
10510;BME280;5303;53.266;10.410;2023-06-22T10:14:59;101598.84;;;25.19;48.74
10510;BME280;5303;53.266;10.410;2023-06-22T10:17:24;101602.03;;;25.44;47.72
10510;BME280;5303;53.266;10.410;2023-06-22T10:19:49;101603.84;;;25.44;48.90
10510;BME280;5303;53.266;10.410;2023-06-22T10:22:14;101603.69;;;25.47;48.33
10510;BME280;5303;53.266;10.410;2023-06-22T10:24:40;101595.19;;;25.37;48.97
10510;BME280;5303;53.266;10.410;2023-06-22T10:27:10;101598.22;;;25.48;47.33
10510;BME280;5303;53.266;10.410;2023-06-22T10:29:35;101600.34;;;25.76;45.83
10510;BME280;5303;53.266;10.410;2023-06-22T10:32:01;101597.22;;;25.84;44.95
10510;BME280;5303;53.266;10.410;2023-06-22T10:34:26;101589.53;;;25.76;45.29
10510;BME280;5303;53.266;10.410;2023-06-22T10:36:51;101588.91;;;25.71;45.64
10510;BME280;5303;53.266;10.410;2023-06-22T10:39:17;101584.28;;;25.73;46.46
10510;BME280;5303;53.266;10.410;2023-06-22T10:41:42;101583.47;;;25.89;45.98
10510;BME280;5303;53.266;10.410;2023-06-22T10:44:08;101586.44;;;26.00;45.28
10510;BME280;5303;53.266;10.410;2023-06-22T10:46:33;101574.06;;;25.96;46.06
10510;BME280;5303;53.266;10.410;2023-06-22T10:48:58;101565.25;;;26.08;46.08
10510;BME280;5303;53.266;10.410;2023-06-22T10:51:24;101571.44;;;26.10;44.57
10510;BME280;5303;53.266;10.410;2023-06-22T10:53:50;101576.06;;;26.08;44.78
10510;BME280;5303;53.266;10.410;2023-06-22T10:56:16;101572.22;;;26.12;44.45
10510;BME280;5303;53.266;10.410;2023-06-22T10:58:41;101565.34;;;26.22;44.47
10510;BME280;5303;53.266;10.410;2023-06-22T11:01:06;101564.13;;;26.28;43.81
10510;BME280;5303;53.266;10.410;2023-06-22T11:03:32;101556.63;;;26.33;44.30
10510;BME280;5303;53.266;10.410;2023-06-22T11:05:57;101551.31;;;26.31;45.33
10510;BME280;5303;53.266;10.410;2023-06-22T11:08:22;101554.34;;;26.25;44.83
10510;BME280;5303;53.266;10.410;2023-06-22T11:10:47;101564.81;;;26.31;46.40
10510;BME280;5303;53.266;10.410;2023-06-22T11:13:13;101555.25;;;26.41;45.57
10510;BME280;5303;53.266;10.410;2023-06-22T11:15:38;101560.03;;;26.36;45.93
10510;BME280;5303;53.266;10.410;2023-06-22T11:18:04;101548.88;;;26.42;46.19
10510;BME280;5303;53.266;10.410;2023-06-22T11:20:30;101547.13;;;26.41;46.55
10510;BME280;5303;53.266;10.410;2023-06-22T11:22:55;101537.56;;;26.66;45.10
10510;BME280;5303;53.266;10.410;2023-06-22T11:25:21;101543.66;;;26.85;45.12
10510;BME280;5303;53.266;10.410;2023-06-22T11:27:46;101531.47;;;26.78;43.11
10510;BME280;5303;53.266;10.410;2023-06-22T11:30:11;101539.69;;;27.07;43.02
10510;BME280;5303;53.266;10.410;2023-06-22T11:32:37;101534.38;;;27.05;43.60
10510;BME280;5303;53.266;10.410;2023-06-22T11:35:02;101536.25;;;27.19;43.56
10510;BME280;5303;53.266;10.410;2023-06-22T11:37:27;101537.59;;;27.26;43.08
10510;BME280;5303;53.266;10.410;2023-06-22T11:39:53;101542.84;;;27.29;42.65
10510;BME280;5303;53.266;10.410;2023-06-22T11:42:20;101537.75;;;27.39;41.87
10510;BME280;5303;53.266;10.410;2023-06-22T11:44:45;101537.91;;;27.21;41.36
10510;BME280;5303;53.266;10.410;2023-06-22T11:47:10;101529.16;;;26.86;42.58
10510;BME280;5303;53.266;10.410;2023-06-22T11:49:35;101531.28;;;26.81;42.96
10510;BME280;5303;53.266;10.410;2023-06-22T11:52:01;101536.03;;;26.62;42.83
10510;BME280;5303;53.266;10.410;2023-06-22T11:54:26;101525.75;;;26.53;43.82
10510;BME280;5303;53.266;10.410;2023-06-22T11:56:51;101527.31;;;26.57;45.15
10510;BME280;5303;53.266;10.410;2023-06-22T11:59:16;101519.34;;;26.54;42.79
10510;BME280;5303;53.266;10.410;2023-06-22T12:01:42;101516.84;;;26.51;43.81
10510;BME280;5303;53.266;10.410;2023-06-22T12:04:07;101513.16;;;26.52;44.00
10510;BME280;5303;53.266;10.410;2023-06-22T12:06:37;101514.72;;;26.56;43.09
10510;BME280;5303;53.266;10.410;2023-06-22T12:09:03;101513.16;;;26.52;43.59
10510;BME280;5303;53.266;10.410;2023-06-22T12:11:30;101518.28;;;26.56;43.71
10510;BME280;5303;53.266;10.410;2023-06-22T12:13:55;101502.28;;;26.37;43.26
10510;BME280;5303;53.266;10.410;2023-06-22T12:16:20;101506.22;;;26.48;43.88
10510;BME280;5303;53.266;10.410;2023-06-22T12:18:47;101497.91;;;26.51;45.18
10510;BME280;5303;53.266;10.410;2023-06-22T12:21:12;101503.34;;;26.65;44.33
10510;BME280;5303;53.266;10.410;2023-06-22T12:23:37;101496.41;;;26.61;44.45
10510;BME280;5303;53.266;10.410;2023-06-22T12:26:03;101495.25;;;26.65;43.86
10510;BME280;5303;53.266;10.410;2023-06-22T12:28:28;101494.28;;;26.66;44.70
10510;BME280;5303;53.266;10.410;2023-06-22T12:30:53;101491.66;;;26.64;43.74
10510;BME280;5303;53.266;10.410;2023-06-22T12:33:18;101486.88;;;26.54;43.79
10510;BME280;5303;53.266;10.410;2023-06-22T12:35:44;101483.63;;;26.63;43.39
10510;BME280;5303;53.266;10.410;2023-06-22T12:38:10;101483.41;;;26.52;45.32
10510;BME280;5303;53.266;10.410;2023-06-22T12:40:36;101485.91;;;26.55;45.19
10510;BME280;5303;53.266;10.410;2023-06-22T12:43:01;101485.28;;;26.65;44.90
10510;BME280;5303;53.266;10.410;2023-06-22T12:45:27;101481.16;;;26.74;44.58